createdAt,value
2022-12-01T00:06:31.039Z,91.17
2022-12-01T00:16:55.285Z,91.07
2022-12-01T00:27:18.599Z,91.16
2022-12-01T00:37:44.554Z,91.06
2022-12-01T00:48:10.363Z,91.07
2022-12-01T00:58:36.010Z,91.14
2022-12-01T01:09:01.452Z,91.16
2022-12-01T01:19:16.783Z,91.12
2022-12-01T01:29:43.289Z,90.98
2022-12-01T01:40:09.058Z,90.87
2022-12-01T01:50:34.899Z,90.94
2022-12-01T02:00:56.961Z,90.81
2022-12-01T02:11:30.044Z,90.78
2022-12-01T02:22:09.193Z,90.73
2022-12-01T02:32:44.493Z,90.66
2022-12-01T02:43:17.315Z,90.71
2022-12-01T02:53:43.192Z,90.78
2022-12-01T03:04:34.198Z,90.74
2022-12-01T03:15:04.329Z,90.81
2022-12-01T03:25:32.098Z,90.94
2022-12-01T03:36:03.162Z,91.03
2022-12-01T03:46:41.267Z,91.40
2022-12-01T03:57:11.548Z,91.80
2022-12-01T04:07:37.326Z,92.26
2022-12-01T04:17:51.405Z,92.80
2022-12-01T04:28:16.870Z,93.31
2022-12-01T04:38:43.612Z,93.85
2022-12-01T04:49:09.363Z,94.06
2022-12-01T04:59:34.831Z,94.14
2022-12-01T05:10:00.479Z,94.47
2022-12-01T05:20:44.768Z,94.86
2022-12-01T05:31:10.504Z,95.07
2022-12-01T05:41:36.034Z,95.35
2022-12-01T05:52:01.692Z,95.64
2022-12-01T06:02:27.763Z,95.85
2022-12-01T06:12:53.372Z,95.92
2022-12-01T06:23:18.801Z,96.07
2022-12-01T06:33:44.391Z,96.19
2022-12-01T06:44:10.033Z,96.26
2022-12-01T06:54:37.524Z,96.04
2022-12-01T07:05:03.089Z,96.12
2022-12-01T07:15:28.794Z,96.17
2022-12-01T07:26:02.398Z,95.99
2022-12-01T07:36:27.922Z,95.83
2022-12-01T07:46:53.538Z,95.57
2022-12-01T07:57:20.444Z,95.30
2022-12-01T08:07:44.385Z,94.76
2022-12-01T08:18:09.882Z,94.57
2022-12-01T08:28:37.540Z,94.26
2022-12-01T08:39:02.982Z,93.90
2022-12-01T08:49:28.533Z,93.73
2022-12-01T08:59:53.970Z,93.86
2022-12-01T09:10:19.664Z,93.56
2022-12-01T09:20:45.888Z,93.50
2022-12-01T09:31:13.311Z,92.83
2022-12-01T09:41:42.017Z,92.36
2022-12-01T09:52:10.628Z,91.07
2022-12-01T10:02:41.258Z,90.42
2022-12-01T10:13:17.402Z,89.74
2022-12-01T10:24:02.314Z,90.14
2022-12-01T10:34:31.174Z,90.34
2022-12-01T10:44:58.292Z,89.61
2022-12-01T10:55:30.555Z,89.72
2022-12-01T11:05:58.448Z,90.10
2022-12-01T11:16:40.099Z,90.10
2022-12-01T11:27:13.820Z,89.83
2022-12-01T11:37:54.860Z,89.90
2022-12-01T11:48:34.479Z,90.27
2022-12-01T11:59:03.339Z,90.50
2022-12-01T12:09:45.230Z,90.63
2022-12-01T12:20:36.888Z,91.09
2022-12-01T12:30:58.924Z,90.95
2022-12-01T12:41:33.416Z,91.03
2022-12-01T12:52:08.293Z,91.20
2022-12-01T13:02:40.882Z,91.40
2022-12-01T13:13:24.438Z,91.45
2022-12-01T13:23:51.962Z,91.20
2022-12-01T13:34:25.996Z,91.05
2022-12-01T13:44:55.966Z,90.47
2022-12-01T13:55:28.638Z,90.65
2022-12-01T14:06:06.719Z,90.79
2022-12-01T14:16:50.030Z,90.77
2022-12-01T14:27:16.509Z,90.81
2022-12-01T14:37:48.935Z,89.98
2022-12-01T14:48:18.177Z,88.81
2022-12-01T14:58:53.693Z,88.69
2022-12-01T15:09:36.980Z,88.54
2022-12-01T15:20:03.195Z,88.90
2022-12-01T15:30:28.819Z,89.33
2022-12-01T15:51:42.112Z,89.67
2022-12-01T16:02:25.215Z,89.96
2022-12-01T16:12:50.924Z,89.88
2022-12-01T16:23:25.358Z,89.24
2022-12-01T16:34:00.340Z,88.59
2022-12-01T16:44:29.290Z,88.73
2022-12-01T16:54:54.985Z,88.79
2022-12-01T17:05:21.091Z,89.13
2022-12-01T17:15:49.042Z,89.17
2022-12-01T17:26:17.099Z,89.42
2022-12-01T17:36:42.854Z,89.48
2022-12-01T17:47:08.499Z,89.70
2022-12-01T17:57:34.228Z,89.79
2022-12-01T18:07:59.995Z,89.87
2022-12-01T18:18:25.575Z,89.96
2022-12-01T18:28:56.078Z,90.12
2022-12-01T18:39:21.718Z,90.19
2022-12-01T18:49:47.251Z,90.05
2022-12-01T19:00:15.280Z,90.00
2022-12-01T19:10:40.936Z,89.89
2022-12-01T19:21:08.387Z,89.86
2022-12-01T19:31:34.342Z,90.10
2022-12-01T19:42:00.233Z,90.07
2022-12-01T19:52:25.912Z,90.02
2022-12-01T20:02:51.662Z,89.73
2022-12-01T20:13:17.351Z,89.59
2022-12-01T20:23:43.712Z,89.71
2022-12-01T20:34:12.429Z,89.35
2022-12-01T20:44:39.983Z,89.26
2022-12-01T20:55:06.491Z,89.25
2022-12-01T21:05:33.167Z,89.37
2022-12-01T21:16:04.863Z,89.21
2022-12-01T21:26:32.580Z,89.08
2022-12-01T21:37:02.047Z,89.13
2022-12-01T21:47:30.643Z,88.65
2022-12-01T21:57:56.778Z,88.78
2022-12-01T22:08:27.572Z,88.62
2022-12-01T22:18:55.761Z,88.41
2022-12-01T22:29:29.497Z,88.60
2022-12-01T22:39:57.430Z,88.15
2022-12-01T22:50:27.822Z,88.44
2022-12-01T23:00:57.784Z,88.52
2022-12-01T23:11:23.781Z,88.86
2022-12-01T23:21:49.553Z,88.87
2022-12-01T23:32:15.612Z,88.98
2022-12-01T23:42:41.505Z,89.21
2022-12-01T23:53:07.110Z,89.00
